createdAt,value
2023-10-09T00:03:05.551Z,101456.16
2023-10-09T00:08:27.450Z,101459.56
2023-10-09T00:13:49.229Z,101453.56
2023-10-09T00:19:11.017Z,101450.16
2023-10-09T00:24:34.050Z,101456.97
2023-10-09T00:29:55.983Z,101454.41
2023-10-09T00:35:17.781Z,101430.47
2023-10-09T00:40:39.522Z,101440.72
2023-10-09T00:46:03.260Z,101421.06
2023-10-09T00:51:25.834Z,101414.19
2023-10-09T00:56:47.826Z,101409.09
2023-10-09T01:02:09.830Z,101406.53
2023-10-09T01:07:31.691Z,101411.66
2023-10-09T01:12:53.605Z,101411.66
2023-10-09T01:18:15.852Z,101399.72
2023-10-09T01:23:37.630Z,101389.44
2023-10-09T01:28:59.795Z,101374.06
2023-10-09T01:34:29.973Z,101374.06
2023-10-09T01:39:53.650Z,101371.50
2023-10-09T01:45:15.796Z,101362.09
2023-10-09T01:50:37.560Z,101358.69
2023-10-09T01:56:09.492Z,101368.13
2023-10-09T02:01:31.312Z,101349.31
2023-10-09T02:06:53.173Z,101346.78
2023-10-09T02:12:14.998Z,101356.19
2023-10-09T02:17:36.931Z,101348.47
2023-10-09T02:22:58.736Z,101351.91
2023-10-09T02:28:20.531Z,101342.50
2023-10-09T02:33:42.426Z,101350.19
2023-10-09T02:39:04.260Z,101327.94
2023-10-09T02:44:26.122Z,101346.78
2023-10-09T02:49:48.840Z,101335.63
2023-10-09T02:55:10.675Z,101336.50
2023-10-09T03:00:33.181Z,101342.50
2023-10-09T03:05:55.008Z,101336.50
2023-10-09T03:11:16.782Z,101333.06
2023-10-09T03:16:38.700Z,101331.38
2023-10-09T03:22:00.543Z,101333.09
2023-10-09T03:27:22.321Z,101316.81
2023-10-09T03:32:45.743Z,101324.53
2023-10-09T03:38:07.613Z,101332.22
2023-10-09T03:43:29.389Z,101330.50
2023-10-09T03:48:51.528Z,101323.66
2023-10-09T03:54:13.581Z,101325.38
2023-10-09T03:59:35.502Z,101318.53
2023-10-09T04:04:57.358Z,101322.81
2023-10-09T04:10:19.257Z,101322.81
2023-10-09T04:15:41.139Z,101321.94
2023-10-09T04:21:03.041Z,101312.53
2023-10-09T04:26:25.938Z,101314.25
2023-10-09T04:31:48.631Z,101307.41
2023-10-09T04:37:10.387Z,101284.31
2023-10-09T04:42:32.260Z,101274.03
2023-10-09T04:47:54.112Z,101271.47
2023-10-09T04:53:15.880Z,101272.31
2023-10-09T04:58:37.643Z,101274.03
2023-10-09T05:03:59.509Z,101262.06
2023-10-09T05:09:23.633Z,101235.56
2023-10-09T05:14:45.531Z,101231.28
2023-10-09T05:20:07.967Z,101223.56
2023-10-09T05:25:29.765Z,101214.16
2023-10-09T05:30:51.518Z,101217.59
2023-10-09T05:36:13.604Z,101232.13
2023-10-09T05:41:35.501Z,101228.69
2023-10-09T05:46:57.342Z,101227.00
2023-10-09T05:52:19.076Z,101227.84
2023-10-09T05:57:41.000Z,101211.50
2023-10-09T06:03:03.215Z,101202.16
2023-10-09T06:08:30.282Z,101196.94
2023-10-09T06:13:52.039Z,101194.38
2023-10-09T06:19:15.194Z,101202.03
2023-10-09T06:24:38.923Z,101207.16
2023-10-09T06:30:02.657Z,101202.84
2023-10-09T06:35:25.382Z,101213.88
2023-10-09T06:40:49.640Z,101216.44
2023-10-09T06:46:16.367Z,101217.94
2023-10-09T06:51:38.222Z,101208.69
2023-10-09T06:56:59.994Z,101208.28
2023-10-09T07:02:21.779Z,101206.56
2023-10-09T07:07:43.593Z,101215.69
2023-10-09T07:13:06.191Z,101210.25
2023-10-09T07:18:29.363Z,101203.47
2023-10-09T07:23:51.175Z,101199.72
2023-10-09T07:29:12.940Z,101195.56
2023-10-09T07:34:34.738Z,101192.66
2023-10-09T07:39:56.513Z,101203.75
2023-10-09T07:45:18.548Z,101207.75
2023-10-09T07:50:40.432Z,101203.88
2023-10-09T07:56:02.210Z,101212.72
2023-10-09T08:01:24.129Z,101186.78
2023-10-09T08:07:04.402Z,101165.25
2023-10-09T08:12:28.479Z,101164.59
2023-10-09T08:17:55.788Z,101162.47
2023-10-09T08:23:18.330Z,101165.25
2023-10-09T08:28:41.236Z,101177.38
2023-10-09T08:39:27.727Z,101150.94
2023-10-09T08:44:49.584Z,101150.06
2023-10-09T08:50:11.338Z,101150.81
2023-10-09T08:55:34.030Z,101152.22
2023-10-09T09:00:55.909Z,101141.47
2023-10-09T09:06:21.148Z,101136.22
2023-10-09T09:11:43.877Z,101131.69
2023-10-09T09:17:07.691Z,101101.81
2023-10-09T09:22:31.843Z,101106.69
2023-10-09T09:27:53.656Z,101095.66
2023-10-09T09:33:26.315Z,101097.78
2023-10-09T09:38:48.409Z,101088.88
2023-10-09T09:44:10.554Z,101060.06
2023-10-09T09:49:32.633Z,101056.75
2023-10-09T09:54:54.590Z,101058.63
2023-10-09T10:00:19.176Z,101053.56
2023-10-09T10:05:43.624Z,101051.94
2023-10-09T10:11:05.805Z,101056.25
2023-10-09T10:16:28.102Z,101043.00
2023-10-09T10:21:50.541Z,101035.56
2023-10-09T10:27:12.300Z,101023.63
2023-10-09T10:32:57.310Z,101008.75
2023-10-09T10:38:32.318Z,101006.97
2023-10-09T10:43:54.274Z,100994.59
2023-10-09T10:49:17.479Z,101000.38
2023-10-09T10:54:39.472Z,101004.63
2023-10-09T11:00:01.423Z,100997.22
2023-10-09T11:05:27.004Z,100991.41
2023-10-09T11:10:51.009Z,100991.06
2023-10-09T11:16:13.844Z,100984.53
2023-10-09T11:21:36.042Z,100977.53
2023-10-09T11:26:57.859Z,100967.59
2023-10-09T11:32:21.909Z,100975.66
2023-10-09T11:37:43.907Z,100974.16
2023-10-09T11:43:05.954Z,100962.41
2023-10-09T11:48:27.693Z,100959.34
2023-10-09T11:53:49.417Z,100937.25
2023-10-09T11:59:11.260Z,100943.97
2023-10-09T12:04:33.228Z,100935.53
2023-10-09T12:09:55.204Z,100945.06
2023-10-09T12:15:17.024Z,100943.00
2023-10-09T12:20:38.824Z,100931.06
2023-10-09T12:26:00.605Z,100915.09
2023-10-09T12:31:22.547Z,100927.34
2023-10-09T12:36:47.173Z,100938.44
2023-10-09T12:42:10.078Z,100929.41
2023-10-09T12:47:32.376Z,100933.75
2023-10-09T12:53:01.334Z,100936.47
2023-10-09T12:58:23.113Z,100930.13
2023-10-09T13:03:44.973Z,100923.38
2023-10-09T13:09:06.795Z,100915.72
2023-10-09T13:14:29.261Z,100917.78
2023-10-09T13:19:51.055Z,100920.66
2023-10-09T13:25:23.855Z,100902.72
2023-10-09T13:30:53.543Z,100899.97
2023-10-09T13:36:16.075Z,100895.38
2023-10-09T13:41:37.893Z,100894.44
2023-10-09T13:47:01.986Z,100885.44
2023-10-09T13:52:23.835Z,100877.09
2023-10-09T13:57:45.587Z,100878.09
2023-10-09T14:03:07.433Z,100871.31
2023-10-09T14:08:29.255Z,100871.94
2023-10-09T14:13:59.111Z,100877.38
2023-10-09T14:19:28.159Z,100877.31
2023-10-09T14:24:50.104Z,100879.25
2023-10-09T14:30:12.125Z,100883.66
2023-10-09T14:35:33.943Z,100883.06
2023-10-09T14:40:55.814Z,100879.91
2023-10-09T14:46:17.801Z,100883.03
2023-10-09T14:51:39.640Z,100888.44
2023-10-09T14:57:01.398Z,100895.69
2023-10-09T15:02:23.205Z,100892.38
2023-10-09T15:07:47.292Z,100899.59
2023-10-09T15:13:09.439Z,100893.84
2023-10-09T15:18:31.196Z,100900.88
2023-10-09T15:23:56.859Z,100901.78
2023-10-09T15:29:22.038Z,100914.94
2023-10-09T15:34:43.798Z,100911.06
2023-10-09T15:40:09.512Z,100922.66
2023-10-09T15:45:32.214Z,100928.91
2023-10-09T15:50:54.031Z,100931.81
2023-10-09T15:56:15.857Z,100939.63
2023-10-09T16:01:37.798Z,100932.84
2023-10-09T16:06:59.597Z,100940.84
2023-10-09T16:12:21.374Z,100932.31
2023-10-09T16:17:43.166Z,100929.88
2023-10-09T16:23:05.146Z,100943.69
2023-10-09T16:28:28.667Z,100948.03
2023-10-09T16:33:50.483Z,100954.97
2023-10-09T16:39:12.240Z,100965.47
2023-10-09T16:44:34.009Z,100971.63
2023-10-09T16:49:55.744Z,100977.91
2023-10-09T16:55:17.574Z,100968.59
2023-10-09T17:00:39.477Z,100973.84
2023-10-09T17:06:01.375Z,100965.47
2023-10-09T17:11:23.298Z,100977.53
2023-10-09T17:16:45.180Z,100977.53
2023-10-09T17:22:06.950Z,100986.19
2023-10-09T17:27:28.721Z,100991.38
2023-10-09T17:32:50.539Z,100991.50
2023-10-09T17:38:12.346Z,100984.69
2023-10-09T17:43:34.217Z,100994.22
2023-10-09T17:48:56.097Z,100994.06
2023-10-09T17:54:17.841Z,100991.50
2023-10-09T17:59:39.554Z,100998.56
2023-10-09T18:05:04.414Z,100996.84
2023-10-09T18:10:26.267Z,101007.22
2023-10-09T18:15:48.012Z,101010.78
2023-10-09T18:21:10.324Z,101012.47
2023-10-09T18:26:32.600Z,101014.72
2023-10-09T18:31:54.383Z,101018.91
2023-10-09T18:37:16.161Z,101012.00
2023-10-09T18:42:38.282Z,101026.63
2023-10-09T18:48:00.096Z,101030.13
2023-10-09T18:53:21.929Z,101021.56
2023-10-09T18:58:44.148Z,101022.47
2023-10-09T19:04:06.105Z,101031.97
2023-10-09T19:09:27.865Z,101021.75
2023-10-09T19:14:49.660Z,101016.81
2023-10-09T19:20:12.110Z,101003.16
2023-10-09T19:25:33.924Z,101010.97
2023-10-09T19:31:04.288Z,101023.91
2023-10-09T19:36:26.165Z,101024.81
2023-10-09T19:41:47.912Z,101032.56
2023-10-09T19:47:10.925Z,101035.16
2023-10-09T19:52:32.728Z,101036.03
2023-10-09T19:57:54.498Z,101040.28
2023-10-09T20:03:16.270Z,101037.81
2023-10-09T20:08:38.356Z,101043.03
2023-10-09T20:14:00.143Z,101043.09
2023-10-09T20:19:22.040Z,101032.75
2023-10-09T20:24:44.639Z,101042.25
2023-10-09T20:30:06.898Z,101038.09
2023-10-09T20:35:28.715Z,101034.66
2023-10-09T20:40:50.627Z,101033.91
2023-10-09T20:46:12.495Z,101039.09
2023-10-09T20:51:42.739Z,101042.59
2023-10-09T20:57:16.240Z,101041.91
2023-10-09T21:02:38.039Z,101049.56
2023-10-09T21:08:00.008Z,101059.03
2023-10-09T21:13:21.815Z,101070.22
2023-10-09T21:18:45.351Z,101071.94
2023-10-09T21:24:07.350Z,101076.22
2023-10-09T21:29:29.145Z,101086.47
2023-10-09T21:34:51.129Z,101077.91
2023-10-09T21:40:13.670Z,101082.16
2023-10-09T21:45:40.825Z,101079.53
2023-10-09T21:51:02.691Z,101084.69
2023-10-09T21:56:24.491Z,101075.28
2023-10-09T22:01:53.396Z,101079.59
2023-10-09T22:07:29.825Z,101077.03
2023-10-09T22:12:53.878Z,101070.16
2023-10-09T22:18:16.811Z,101070.16
2023-10-09T22:23:39.295Z,101076.94
2023-10-09T22:29:01.036Z,101075.16
2023-10-09T22:34:22.828Z,101074.34
2023-10-09T22:39:44.632Z,101083.75
2023-10-09T22:45:06.936Z,101080.28
2023-10-09T22:50:28.747Z,101089.63
2023-10-09T22:55:52.079Z,101092.13
2023-10-09T23:01:13.879Z,101090.31
2023-10-09T23:06:35.947Z,101101.38
2023-10-09T23:11:58.679Z,101115.91
2023-10-09T23:17:21.238Z,101120.13
2023-10-09T23:22:43.084Z,101114.91
2023-10-09T23:28:04.882Z,101122.59
2023-10-09T23:33:26.608Z,101140.66
2023-10-09T23:38:48.325Z,101135.59
2023-10-09T23:44:10.106Z,101139.91
2023-10-09T23:49:31.903Z,101145.06
2023-10-09T23:54:53.680Z,101138.19
